Time;durP1;ratioP1;P1;durP2;ratioP2;P2;SDS_P1;SDS_P2;PMS_P1;PMS_P2;Temp;Humidity;BMP_temperature;BMP_pressure;BME280_temperature;BME280_humidity;BME280_pressure;Samples;Min_cycle;Max_cycle;Signal;HPM_P1;HPM_P2
2022/08/30 00:02:10;;;;;;;19.15;11.90;;;;;;;21.82;62.80;94814.91;4213114;28;20063;-59
2022/08/30 00:04:12;;;;;;;15.75;11.98;;;;;;;21.83;63.13;94817.38;4211247;28;20056;-59
2022/08/30 00:06:15;;;;;;;15.23;11.05;;;;;;;21.82;63.53;94818.38;4203260;28;20052;-60
2022/08/30 00:08:17;;;;;;;20.95;11.38;;;;;;;21.81;63.46;94822.09;4205401;28;20040;-60
2022/08/30 00:10:19;;;;;;;17.27;11.60;;;;;;;21.81;63.42;94815.94;4207396;28;20048;-59
2022/08/30 00:12:20;;;;;;;15.45;10.93;;;;;;;21.85;63.32;94819.78;4206767;28;20078;-61
2022/08/30 00:14:24;;;;;;;14.98;10.85;;;;;;;21.77;63.46;94807.59;4212152;28;20067;-59
2022/08/30 00:16:26;;;;;;;13.45;11.25;;;;;;;21.71;63.54;94819.16;4209043;28;20044;-60
2022/08/30 00:18:28;;;;;;;13.65;10.38;;;;;;;21.54;63.39;94818.97;4216176;28;20104;-59
2022/08/30 00:20:32;;;;;;;16.05;10.85;;;;;;;21.23;63.96;94820.75;4208402;28;20439;-60
2022/08/30 00:22:33;;;;;;;;;;;;;;;21.16;64.51;94816.50;4211024;28;20043;-61
2022/08/30 00:24:35;;;;;;;12.38;10.93;;;;;;;21.20;64.65;94825.69;4207093;27;19946;-60
2022/08/30 00:26:37;;;;;;;13.82;11.57;;;;;;;21.23;64.82;94809.25;4214490;28;20047;-60
2022/08/30 00:28:38;;;;;;;12.55;10.60;;;;;;;21.13;64.20;94817.78;4215059;28;20048;-61
2022/08/30 00:30:40;;;;;;;14.27;10.75;;;;;;;21.05;64.52;94812.72;4214258;28;21664;-60
2022/08/30 00:32:42;;;;;;;13.75;10.57;;;;;;;21.00;64.51;94816.06;4214195;28;20051;-60
2022/08/30 00:34:44;;;;;;;13.82;11.93;;;;;;;21.05;65.03;94818.06;4207937;28;20534;-60
2022/08/30 00:36:46;;;;;;;14.50;10.55;;;;;;;20.97;64.89;94813.84;4211247;28;20109;-59
2022/08/30 00:38:47;;;;;;;15.07;10.02;;;;;;;20.92;64.60;94816.34;4206201;28;20104;-59
2022/08/30 00:40:50;;;;;;;14.30;10.85;;;;;;;20.98;64.93;94818.13;4209195;28;20051;-60
2022/08/30 00:42:52;;;;;;;13.73;10.95;;;;;;;21.08;64.73;94812.31;4208736;28;20052;-59
2022/08/30 00:45:00;;;;;;;13.63;10.27;;;;;;;21.17;64.39;94818.97;4210104;28;20063;-59
2022/08/30 00:47:02;;;;;;;16.25;11.48;;;;;;;21.21;64.32;94814.81;4212131;28;20559;-61
2022/08/30 00:49:07;;;;;;;16.00;10.90;;;;;;;21.23;64.61;94812.75;4205016;28;20056;-59
2022/08/30 00:51:11;;;;;;;12.75;10.45;;;;;;;21.25;64.54;94813.34;4207228;28;20044;-59
2022/08/30 00:53:21;;;;;;;14.13;10.73;;;;;;;21.27;64.66;94816.59;4199947;28;20131;-60
2022/08/30 00:55:23;;;;;;;12.45;11.07;;;;;;;21.29;64.77;94811.03;4208900;28;20097;-59
2022/08/30 00:57:25;;;;;;;16.83;11.10;;;;;;;21.33;64.74;94817.53;4205179;28;20501;-60
2022/08/30 00:59:27;;;;;;;12.43;10.48;;;;;;;21.39;64.59;94818.50;4209380;28;20553;-61
2022/08/30 01:01:31;;;;;;;12.52;10.88;;;;;;;21.42;64.48;94823.41;4207420;28;20059;-60
2022/08/30 01:03:36;;;;;;;10.88;9.77;;;;;;;21.43;64.38;94825.06;4209016;28;20071;-59
2022/08/30 01:05:38;;;;;;;14.25;10.60;;;;;;;21.45;64.48;94821.13;4216801;28;20047;-61
2022/08/30 01:07:41;;;;;;;14.02;10.30;;;;;;;21.47;64.53;94826.22;4214637;28;20283;-59
2022/08/30 01:09:42;;;;;;;14.27;11.10;;;;;;;21.50;64.43;94819.63;4211080;28;20121;-60
2022/08/30 01:11:45;;;;;;;16.50;11.32;;;;;;;21.50;64.21;94814.31;4204010;28;20076;-60
2022/08/30 01:13:49;;;;;;;14.48;11.20;;;;;;;21.49;64.28;94816.16;4206828;28;20061;-59
2022/08/30 01:15:51;;;;;;;13.52;10.65;;;;;;;21.46;64.54;94813.94;4208573;28;20109;-60
2022/08/30 01:17:54;;;;;;;16.50;10.07;;;;;;;21.42;64.22;94812.75;4213321;28;20089;-61
2022/08/30 01:20:00;;;;;;;12.30;10.95;;;;;;;21.37;64.66;94813.38;4209662;28;20616;-59
2022/08/30 01:22:07;;;;;;;13.65;10.95;;;;;;;21.32;64.74;94809.78;4211635;28;20052;-60
2022/08/30 01:24:10;;;;;;;17.02;10.77;;;;;;;21.06;64.72;94804.53;4204412;28;20048;-60
2022/08/30 01:26:13;;;;;;;13.93;10.77;;;;;;;20.88;65.04;94807.16;4204908;28;20048;-60
2022/08/30 01:28:23;;;;;;;12.40;10.70;;;;;;;20.79;65.48;94809.31;4209242;28;20040;-60
2022/08/30 01:30:24;;;;;;;14.23;11.00;;;;;;;20.79;65.49;94811.97;4216154;28;20060;-61
2022/08/30 01:32:30;;;;;;;17.30;11.07;;;;;;;20.71;65.77;94812.22;4187289;28;20081;-60
2022/08/30 01:34:32;;;;;;;17.25;11.02;;;;;;;20.68;65.63;94815.34;4191232;28;20499;-60
2022/08/30 01:36:36;;;;;;;16.50;12.27;;;;;;;20.59;65.99;94816.66;4204286;28;20063;-61
2022/08/30 01:38:49;;;;;;;16.00;10.90;;;;;;;20.48;67.14;94823.47;4213683;28;20550;-60
2022/08/30 01:41:19;;;;;;;12.85;11.20;;;;;;;19.98;69.06;94829.56;4198220;28;20074;-59
2022/08/30 01:43:20;;;;;;;14.57;12.18;;;;;;;19.62;70.30;94825.66;4199023;28;20052;-60
2022/08/30 01:45:22;;;;;;;14.30;11.25;;;;;;;19.44;70.89;94814.88;4209524;28;20440;-61
2022/08/30 01:47:24;;;;;;;17.65;12.43;;;;;;;19.42;71.44;94816.94;4219722;28;20117;-60
2022/08/30 01:49:26;;;;;;;13.95;11.10;;;;;;;19.39;71.45;94815.53;4211411;28;20565;-59
2022/08/30 01:51:29;;;;;;;17.23;12.10;;;;;;;19.56;71.14;94810.53;4216234;28;20457;-61
2022/08/30 01:53:31;;;;;;;15.48;11.40;;;;;;;19.75;70.80;94811.50;4208749;28;20067;-59
2022/08/30 01:55:33;;;;;;;17.48;11.38;;;;;;;19.92;69.81;94811.81;4211810;28;20457;-61
2022/08/30 01:57:34;;;;;;;16.50;12.02;;;;;;;20.07;68.79;94797.38;4206727;28;20052;-61
2022/08/30 01:59:37;;;;;;;13.60;10.90;;;;;;;20.19;68.31;94799.13;4203612;28;20522;-61
2022/08/30 02:01:40;;;;;;;15.02;11.50;;;;;;;20.29;67.58;94793.34;4214343;28;20105;-61
2022/08/30 02:03:42;;;;;;;13.80;11.10;;;;;;;20.38;67.20;94802.66;4208052;28;20089;-59
2022/08/30 02:05:44;;;;;;;12.30;10.87;;;;;;;20.45;66.97;94799.94;4208187;28;20052;-60
2022/08/30 02:07:46;;;;;;;16.00;11.55;;;;;;;20.52;66.83;94799.91;4207882;28;20052;-60
2022/08/30 02:09:48;;;;;;;17.58;10.75;;;;;;;20.54;67.05;94803.16;4211605;28;20044;-61
2022/08/30 02:11:50;;;;;;;11.77;10.45;;;;;;;20.56;66.82;94793.91;4209619;28;20051;-60
2022/08/30 02:13:53;;;;;;;11.63;10.35;;;;;;;20.63;66.84;94791.25;4209503;28;20093;-63
2022/08/30 02:15:55;;;;;;;12.83;10.47;;;;;;;20.70;66.70;94794.66;4205820;28;20055;-60
2022/08/30 02:17:57;;;;;;;15.77;11.52;;;;;;;20.72;66.81;94795.25;4209342;28;20467;-60
2022/08/30 02:20:02;;;;;;;12.93;11.05;;;;;;;20.77;66.71;94792.72;4208717;28;20052;-60
2022/08/30 02:22:04;;;;;;;13.60;11.48;;;;;;;20.79;66.59;94793.31;4211012;28;20118;-61
2022/08/30 02:24:06;;;;;;;11.50;10.30;;;;;;;20.83;66.36;94783.88;4213051;28;20048;-61
2022/08/30 02:26:09;;;;;;;12.10;10.88;;;;;;;20.86;66.17;94788.75;4208148;28;20787;-62
2022/08/30 02:28:11;;;;;;;14.32;10.60;;;;;;;20.88;66.28;94787.72;4205703;28;20090;-60
2022/08/30 02:30:17;;;;;;;15.02;11.27;;;;;;;20.84;66.30;94790.00;4208985;28;20048;-60
2022/08/30 02:32:18;;;;;;;18.25;12.18;;;;;;;20.76;66.24;94784.97;4214388;28;20047;-61
2022/08/30 02:34:21;;;;;;;17.80;11.80;;;;;;;20.57;66.46;94798.25;4214004;28;20052;-59
2022/08/30 02:36:23;;;;;;;13.88;11.32;;;;;;;20.39;67.38;94799.00;4210371;28;20538;-62
2022/08/30 02:38:25;;;;;;;19.50;12.98;;;;;;;20.36;67.60;94804.75;4211117;28;20053;-59
2022/08/30 02:40:27;;;;;;;13.70;12.13;;;;;;;20.43;67.62;94802.00;4211978;28;20060;-63
2022/08/30 02:42:28;;;;;;;16.15;11.60;;;;;;;20.45;67.38;94792.78;4215767;28;20056;-60
2022/08/30 02:44:30;;;;;;;16.17;11.75;;;;;;;20.44;67.11;94791.16;4210011;28;20048;-59
2022/08/30 02:46:33;;;;;;;14.55;11.52;;;;;;;20.46;67.34;94789.09;4218911;28;20447;-60
2022/08/30 02:48:35;;;;;;;15.00;12.17;;;;;;;20.52;67.17;94792.75;4212755;28;20102;-61
2022/08/30 02:50:41;;;;;;;13.77;12.27;;;;;;;20.33;67.61;94796.41;4211493;28;20748;-60
2022/08/30 02:52:43;;;;;;;18.73;12.25;;;;;;;20.16;68.48;94793.44;4205198;28;20890;-61
2022/08/30 02:54:48;;;;;;;18.83;12.18;;;;;;;19.96;68.72;94789.09;4219582;28;20048;-62
2022/08/30 02:56:50;;;;;;;18.65;12.30;;;;;;;19.63;69.95;94789.25;4208908;28;20105;-59
2022/08/30 02:58:52;;;;;;;14.00;12.38;;;;;;;19.49;71.04;94791.16;4203953;28;20048;-62
2022/08/30 03:00:54;;;;;;;15.60;11.35;;;;;;;19.52;70.97;94792.59;4205822;28;20098;-61
2022/08/30 03:02:56;;;;;;;17.55;11.82;;;;;;;19.63;70.49;94790.06;4213197;28;20047;-61
2022/08/30 03:04:57;;;;;;;17.02;11.95;;;;;;;19.68;70.07;94791.25;4216069;28;20051;-62
2022/08/30 03:06:59;;;;;;;15.98;13.15;;;;;;;19.50;70.67;94784.81;4213027;28;20596;-61
2022/08/30 03:09:01;;;;;;;17.52;13.15;;;;;;;19.27;71.30;94782.66;4223321;28;20052;-64
2022/08/30 03:11:04;;;;;;;20.90;13.80;;;;;;;19.17;71.86;94783.13;4210936;28;20052;-62
2022/08/30 03:13:08;;;;;;;18.30;12.82;;;;;;;19.27;72.06;94784.50;4212050;28;20060;-61
2022/08/30 03:15:12;;;;;;;18.45;13.07;;;;;;;19.42;71.16;94788.56;4212934;28;20059;-62
2022/08/30 03:17:13;;;;;;;17.38;12.88;;;;;;;19.43;70.82;94795.47;4206657;28;20049;-65
2022/08/30 03:19:16;;;;;;;21.35;12.63;;;;;;;19.32;71.04;94798.81;4204760;28;20468;-61
2022/08/30 03:21:18;;;;;;;17.02;12.07;;;;;;;19.15;70.97;94802.97;4207317;28;20060;-61
2022/08/30 03:23:20;;;;;;;19.20;13.05;;;;;;;18.94;71.90;94796.06;4211708;28;20792;-60
2022/08/30 03:25:23;;;;;;;15.45;12.55;;;;;;;18.56;73.10;94800.19;4211936;28;20530;-61
2022/08/30 03:27:25;;;;;;;13.73;12.25;;;;;;;18.38;74.02;94800.00;4206324;28;20067;-60
2022/08/30 03:29:28;;;;;;;14.27;12.70;;;;;;;18.24;74.86;94806.31;4212802;28;20141;-62
2022/08/30 03:31:30;;;;;;;17.30;12.50;;;;;;;18.29;74.67;94804.69;4205360;28;20613;-61
2022/08/30 03:33:39;;;;;;;20.75;12.95;;;;;;;18.38;74.46;94806.13;4208349;28;20048;-60
2022/08/30 03:35:41;;;;;;;17.17;13.10;;;;;;;18.58;74.20;94805.28;4208866;27;20454;-60
2022/08/30 03:37:43;;;;;;;15.68;13.07;;;;;;;18.78;73.74;94803.47;4208094;28;20085;-60
2022/08/30 03:39:45;;;;;;;15.38;11.93;;;;;;;18.97;72.78;94796.47;4212275;28;20048;-59
2022/08/30 03:41:47;;;;;;;17.38;13.50;;;;;;;19.15;72.10;94793.16;4201853;28;20048;-59
2022/08/30 03:43:50;;;;;;;16.30;13.10;;;;;;;19.33;71.40;94796.97;4209879;28;20148;-61
2022/08/30 03:46:00;;;;;;;15.05;12.93;;;;;;;19.46;71.18;94798.75;4217244;28;20161;-62
2022/08/30 03:48:02;;;;;;;16.33;14.00;;;;;;;19.55;70.81;94803.63;4205453;28;20052;-62
2022/08/30 03:50:04;;;;;;;15.05;13.35;;;;;;;19.60;70.57;94810.94;4203583;28;20288;-64
2022/08/30 03:52:06;;;;;;;16.13;13.02;;;;;;;19.58;70.62;94802.38;4207994;28;20063;-65
2022/08/30 03:54:08;;;;;;;15.48;13.57;;;;;;;19.57;70.83;94800.72;4213606;28;20047;-64
2022/08/30 03:56:10;;;;;;;16.98;13.35;;;;;;;19.62;70.75;94804.38;4201317;28;20071;-63
2022/08/30 03:58:12;;;;;;;20.00;13.50;;;;;;;19.63;70.70;94805.19;4212224;28;20048;-65
2022/08/30 04:00:19;;;;;;;20.33;13.73;;;;;;;19.61;70.49;94808.06;4210717;28;20079;-62
2022/08/30 04:02:21;;;;;;;20.10;13.70;;;;;;;19.36;72.02;94804.50;4207144;28;20044;-61
2022/08/30 04:04:24;;;;;;;16.90;13.73;;;;;;;19.26;72.27;94801.50;4211197;28;20052;-67
2022/08/30 04:06:26;;;;;;;18.33;13.73;;;;;;;19.26;72.36;94799.63;4208265;28;20044;-66
2022/08/30 04:08:28;;;;;;;16.63;13.70;;;;;;;19.34;72.22;94802.06;4206906;28;20400;-62
2022/08/30 04:10:30;;;;;;;16.25;14.43;;;;;;;19.47;71.83;94809.16;4207656;28;20040;-64
2022/08/30 04:12:31;;;;;;;19.55;14.30;;;;;;;19.56;71.59;94807.88;4214458;28;20052;-67
2022/08/30 04:14:33;;;;;;;20.83;15.52;;;;;;;19.64;71.45;94810.31;4205484;28;20099;-64
2022/08/30 04:16:35;;;;;;;22.55;13.38;;;;;;;19.69;71.01;94816.81;4202137;28;20052;-63
2022/08/30 04:18:37;;;;;;;19.05;14.95;;;;;;;19.75;71.12;94814.16;4216260;28;20091;-63
2022/08/30 04:20:39;;;;;;;17.55;14.05;;;;;;;19.81;71.02;94809.81;4213298;28;20158;-63
2022/08/30 04:22:41;;;;;;;19.90;14.57;;;;;;;19.87;70.71;94816.94;4204483;28;20044;-62
2022/08/30 04:24:43;;;;;;;17.25;14.18;;;;;;;19.93;70.31;94805.44;4210432;28;20052;-64
2022/08/30 04:26:45;;;;;;;19.88;13.73;;;;;;;19.99;70.36;94815.25;4214149;28;20044;-64
2022/08/30 04:28:47;;;;;;;17.88;14.32;;;;;;;20.05;70.23;94816.22;4219093;28;20051;-65
2022/08/30 04:30:48;;;;;;;16.80;13.93;;;;;;;20.07;69.94;94816.00;4202298;28;20052;-63
2022/08/30 04:32:50;;;;;;;18.10;14.13;;;;;;;20.10;70.10;94815.59;4208912;28;20056;-62
2022/08/30 04:34:58;;;;;;;18.55;13.93;;;;;;;20.14;70.04;94824.75;4204740;28;20528;-63
2022/08/30 04:37:00;;;;;;;16.65;14.27;;;;;;;20.18;69.87;94820.66;4213707;28;20488;-61
2022/08/30 04:39:02;;;;;;;16.77;14.55;;;;;;;20.19;69.67;94824.91;4210523;28;20052;-62
2022/08/30 04:41:15;;;;;;;22.15;14.20;;;;;;;20.20;69.83;94821.25;4205005;28;20082;-62
2022/08/30 04:43:17;;;;;;;15.63;14.02;;;;;;;20.21;69.71;94829.00;4212491;28;20047;-62
2022/08/30 04:45:20;;;;;;;19.02;15.02;;;;;;;20.25;69.65;94832.03;4205039;28;20047;-63
2022/08/30 04:47:22;;;;;;;17.45;14.60;;;;;;;20.29;69.69;94832.44;4207062;28;20044;-62
2022/08/30 04:49:23;;;;;;;18.70;13.82;;;;;;;20.31;69.34;94833.84;4209287;28;20048;-62
2022/08/30 04:51:25;;;;;;;18.20;13.98;;;;;;;20.22;69.90;94835.16;4208461;28;20471;-63
2022/08/30 04:53:27;;;;;;;21.55;15.15;;;;;;;20.07;70.15;94831.94;4205594;28;20504;-62
2022/08/30 04:55:29;;;;;;;17.45;15.15;;;;;;;19.63;71.73;94837.09;4213083;28;20044;-63
2022/08/30 04:57:31;;;;;;;19.55;15.57;;;;;;;19.67;72.34;94840.94;4208174;28;20056;-65
2022/08/30 04:59:32;;;;;;;22.42;15.43;;;;;;;19.59;72.46;94839.34;4207276;28;20093;-64
2022/08/30 05:01:34;;;;;;;23.63;16.42;;;;;;;19.38;72.77;94840.47;4207768;28;20101;-62
2022/08/30 05:03:47;;;;;;;19.63;16.48;;;;;;;19.46;73.03;94844.72;4209928;28;20130;-58
2022/08/30 05:05:49;;;;;;;23.27;16.63;;;;;;;19.43;72.89;94848.59;4210930;28;20052;-62
2022/08/30 05:07:51;;;;;;;22.67;16.38;;;;;;;19.34;73.06;94846.41;4208960;28;20051;-61
2022/08/30 05:09:53;;;;;;;19.98;16.10;;;;;;;19.42;73.41;94851.47;4208407;28;20059;-62
2022/08/30 05:11:55;;;;;;;18.65;16.10;;;;;;;19.52;72.88;94843.06;4207579;28;20863;-60
2022/08/30 05:13:57;;;;;;;18.95;15.43;;;;;;;19.54;72.96;94851.66;4206727;28;20052;-62
2022/08/30 05:16:00;;;;;;;20.20;16.73;;;;;;;19.59;72.94;94851.81;4209997;28;20056;-60
2022/08/30 05:18:03;;;;;;;17.77;15.77;;;;;;;19.58;72.80;94856.31;4205286;28;20059;-62
2022/08/30 05:20:09;;;;;;;20.00;15.97;;;;;;;19.65;72.90;94859.75;4213866;28;20047;-61
2022/08/30 05:22:11;;;;;;;18.42;15.80;;;;;;;19.78;72.19;94858.09;4211068;28;20280;-63
2022/08/30 05:24:13;;;;;;;18.75;16.08;;;;;;;19.76;72.21;94855.66;4211674;28;20453;-59
2022/08/30 05:26:17;;;;;;;21.15;16.48;;;;;;;19.78;71.88;94860.75;4204987;28;20487;-60
2022/08/30 05:28:19;;;;;;;24.48;15.98;;;;;;;19.63;72.27;94859.16;4208188;28;20048;-60
2022/08/30 05:30:27;;;;;;;22.20;15.75;;;;;;;19.65;72.77;94862.41;4206141;28;20067;-63
2022/08/30 05:32:29;;;;;;;23.30;15.80;;;;;;;19.78;72.58;94863.41;4202619;28;20083;-63
2022/08/30 05:34:30;;;;;;;19.92;14.27;;;;;;;19.92;72.05;94859.66;4206680;28;20044;-63
2022/08/30 05:36:34;;;;;;;16.48;14.00;;;;;;;20.08;71.60;94862.84;4210471;28;20400;-61
2022/08/30 05:38:36;;;;;;;;;;;;;;;20.20;70.93;94861.94;4209268;28;20044;-63
2022/08/30 05:40:41;;;;;;;16.48;13.93;;;;;;;20.35;70.37;94860.81;4203541;28;19932;-66
2022/08/30 05:42:44;;;;;;;15.45;13.68;;;;;;;20.43;69.90;94858.72;4206055;28;20052;-65
2022/08/30 05:44:50;;;;;;;19.75;13.50;;;;;;;20.52;69.61;94861.09;4205108;28;20045;-64
2022/08/30 05:46:52;;;;;;;17.92;14.27;;;;;;;20.55;69.12;94863.34;4209969;28;20055;-64
2022/08/30 05:48:55;;;;;;;16.08;13.88;;;;;;;20.57;69.06;94861.28;4212678;28;20048;-63
2022/08/30 05:51:24;;;;;;;19.75;14.48;;;;;;;20.56;69.37;94860.44;4207208;28;20046;-62
2022/08/30 05:53:26;;;;;;;19.85;14.77;;;;;;;20.58;68.92;94860.28;4207122;28;20051;-63
2022/08/30 05:55:27;;;;;;;19.75;14.43;;;;;;;20.58;68.44;94860.28;4202970;28;20055;-62
2022/08/30 05:57:35;;;;;;;16.75;13.73;;;;;;;20.59;68.78;94860.06;4209892;28;20052;-64
2022/08/30 05:59:37;;;;;;;15.27;13.57;;;;;;;20.65;68.69;94861.06;4212959;28;20452;-62
2022/08/30 06:01:44;;;;;;;20.08;14.20;;;;;;;20.70;68.42;94863.88;4214774;28;20052;-62
2022/08/30 06:03:47;;;;;;;17.48;15.48;;;;;;;20.55;68.56;94863.34;4217691;28;20059;-62
2022/08/30 06:05:49;;;;;;;17.98;14.80;;;;;;;20.37;69.33;94858.75;4216806;28;20417;-61
2022/08/30 06:07:50;;;;;;;19.90;14.43;;;;;;;20.30;70.40;94861.47;4212191;28;20056;-61
2022/08/30 06:09:52;;;;;;;17.67;14.45;;;;;;;20.20;70.38;94858.50;4208309;28;20108;-62
2022/08/30 06:11:54;;;;;;;17.85;13.73;;;;;;;19.99;71.00;94863.09;4211849;28;20638;-64
2022/08/30 06:13:56;;;;;;;23.25;15.50;;;;;;;19.95;71.63;94866.41;4207038;28;20101;-64
2022/08/30 06:15:57;;;;;;;19.02;15.52;;;;;;;19.78;72.20;94860.75;4206141;28;20413;-65
2022/08/30 06:17:59;;;;;;;19.83;16.35;;;;;;;19.65;72.49;94867.72;4217850;28;20052;-63
2022/08/30 06:20:01;;;;;;;24.35;16.35;;;;;;;19.77;72.88;94864.47;4212909;28;20048;-66
2022/08/30 06:22:03;;;;;;;18.83;16.42;;;;;;;19.85;72.38;94874.81;4210280;28;20056;-62
2022/08/30 06:24:07;;;;;;;25.10;16.67;;;;;;;19.94;72.78;94873.56;4214840;28;20056;-62
2022/08/30 06:26:09;;;;;;;21.65;17.27;;;;;;;19.95;72.23;94872.53;4211363;28;20109;-67
2022/08/30 06:28:11;;;;;;;20.58;17.02;;;;;;;19.93;71.87;94879.91;4208709;28;20059;-71
2022/08/30 06:30:14;;;;;;;20.58;16.23;;;;;;;19.80;72.02;94879.97;4212311;28;20043;-62
2022/08/30 06:32:19;;;;;;;25.90;15.90;;;;;;;19.91;72.32;94881.16;4211833;28;20488;-61
2022/08/30 06:34:21;;;;;;;18.75;14.95;;;;;;;19.79;71.61;94884.47;4211948;28;20059;-68
2022/08/30 06:36:24;;;;;;;18.08;14.27;;;;;;;19.55;72.72;94883.31;4212618;28;20044;-65
2022/08/30 06:38:26;;;;;;;18.38;15.15;;;;;;;19.42;72.96;94884.19;4208160;28;20055;-67
2022/08/30 06:40:28;;;;;;;20.15;15.57;;;;;;;19.30;73.80;94885.03;4210441;28;20085;-66
2022/08/30 06:42:32;;;;;;;21.80;15.10;;;;;;;19.38;74.27;94885.63;4207717;28;20542;-67
2022/08/30 06:44:34;;;;;;;20.63;16.65;;;;;;;19.58;74.44;94892.72;4213469;28;20386;-64
2022/08/30 06:46:37;;;;;;;23.17;16.02;;;;;;;19.82;74.51;94896.53;4210402;28;20048;-69
2022/08/30 06:48:39;;;;;;;25.57;18.17;;;;;;;20.04;73.91;94895.16;4211272;28;20079;-65
2022/08/30 06:50:52;;;;;;;24.33;17.23;;;;;;;20.23;74.07;94893.44;4212838;28;20276;-66
2022/08/30 06:52:54;;;;;;;22.25;16.58;;;;;;;20.39;73.43;94900.09;4200492;28;20577;-67
2022/08/30 06:54:57;;;;;;;21.58;16.05;;;;;;;20.50;73.02;94906.59;4213964;28;20048;-66
2022/08/30 06:56:59;;;;;;;22.65;16.42;;;;;;;20.55;72.11;94905.94;4212234;28;20059;-67
2022/08/30 06:59:01;;;;;;;21.08;16.35;;;;;;;20.60;72.05;94906.13;4211228;28;20043;-67
2022/08/30 07:01:04;;;;;;;19.52;15.25;;;;;;;20.66;71.64;94899.94;4206364;28;20079;-68
2022/08/30 07:03:07;;;;;;;20.90;13.95;;;;;;;20.72;70.82;94901.72;4212309;28;20047;-68
2022/08/30 07:05:10;;;;;;;20.02;15.00;;;;;;;20.80;70.61;94903.28;4209082;28;20055;-68
2022/08/30 07:07:17;;;;;;;17.38;13.45;;;;;;;20.88;71.24;94907.53;4202526;28;20053;-69
2022/08/30 07:09:19;;;;;;;23.73;16.48;;;;;;;20.91;71.04;94907.94;4209837;28;20040;-67
2022/08/30 07:11:35;;;;;;;20.58;15.68;;;;;;;20.93;71.16;94905.03;4208163;28;20490;-67
2022/08/30 07:13:37;;;;;;;20.30;15.50;;;;;;;20.94;71.31;94909.34;4209646;28;20056;-66
2022/08/30 07:15:41;;;;;;;21.42;15.38;;;;;;;20.91;71.19;94909.75;4205662;28;20055;-68
2022/08/30 07:20:04;;;;;;;18.80;15.65;;;;;;;20.95;71.30;94908.28;4213382;28;20109;-67
2022/08/30 07:22:06;;;;;;;23.85;16.20;;;;;;;21.00;71.41;94909.28;4210560;28;20086;-67
2022/08/30 07:24:09;;;;;;;19.45;15.35;;;;;;;21.05;70.59;94906.75;4210395;28;20048;-67
2022/08/30 07:26:13;;;;;;;18.30;16.05;;;;;;;21.11;70.64;94909.59;4211935;28;20056;-64
2022/08/30 07:28:16;;;;;;;19.23;16.17;;;;;;;20.59;70.35;94905.31;4210454;28;20048;-66
2022/08/30 07:30:18;;;;;;;21.65;17.25;;;;;;;20.32;72.36;94903.81;4203891;28;20048;-66
2022/08/30 07:32:20;;;;;;;21.17;17.00;;;;;;;20.36;72.71;94911.16;4204135;28;20060;-66
2022/08/30 07:34:21;;;;;;;19.17;15.73;;;;;;;20.24;71.95;94913.69;4206691;28;20064;-66
2022/08/30 07:36:28;;;;;;;27.00;17.30;;;;;;;20.23;72.59;94916.56;4208304;28;20101;-69
2022/08/30 07:38:30;;;;;;;22.95;17.08;;;;;;;20.40;73.18;94911.56;4206390;28;20499;-67
2022/08/30 07:40:32;;;;;;;22.35;17.23;;;;;;;20.56;72.71;94911.00;4209881;28;20044;-61
2022/08/30 07:42:33;;;;;;;21.58;16.98;;;;;;;20.75;72.37;94903.94;4199225;28;20891;-67
2022/08/30 07:44:35;;;;;;;22.20;17.23;;;;;;;20.90;72.12;94900.97;4213155;28;20052;-63
2022/08/30 07:46:38;;;;;;;20.15;17.15;;;;;;;21.05;71.80;94904.09;4212819;28;20630;-66
2022/08/30 07:48:40;;;;;;;20.83;17.03;;;;;;;21.12;70.73;94906.69;4211751;28;20055;-67
2022/08/30 07:50:45;;;;;;;20.85;16.70;;;;;;;21.22;71.52;94903.53;4208904;28;20597;-66
2022/08/30 07:52:47;;;;;;;23.70;16.95;;;;;;;21.35;71.94;94907.91;4198422;28;20113;-67
2022/08/30 07:54:48;;;;;;;21.98;16.50;;;;;;;21.47;70.86;94909.66;4206386;28;20047;-69
2022/08/30 07:56:54;;;;;;;19.25;16.27;;;;;;;21.51;70.13;94918.03;4202375;28;20051;-68
2022/08/30 07:58:56;;;;;;;19.63;16.48;;;;;;;21.60;69.90;94914.03;4203073;28;20056;-64
2022/08/30 08:00:59;;;;;;;20.30;16.38;;;;;;;21.67;69.72;94906.75;4203387;28;20040;-65
2022/08/30 08:03:06;;;;;;;18.83;15.15;;;;;;;21.78;69.74;94912.41;4209946;28;20051;-65
2022/08/30 08:05:09;;;;;;;19.13;14.98;;;;;;;21.83;69.23;94920.53;4201735;28;20052;-64
2022/08/30 08:07:17;;;;;;;19.35;15.80;;;;;;;21.91;69.03;94920.22;4201056;28;20052;-63
2022/08/30 08:09:19;;;;;;;19.33;15.30;;;;;;;21.91;68.23;94917.56;4200620;28;20048;-63
2022/08/30 08:11:24;;;;;;;23.88;16.08;;;;;;;21.96;68.15;94915.06;4203867;28;20192;-65
2022/08/30 08:13:30;;;;;;;21.45;16.13;;;;;;;21.98;67.92;94920.94;4199407;28;20048;-62
2022/08/30 08:15:37;;;;;;;23.45;17.45;;;;;;;22.04;67.90;94911.25;4204786;28;20477;-63
2022/08/30 08:17:39;;;;;;;18.58;15.20;;;;;;;22.02;67.96;94914.13;4200361;28;20048;-63
2022/08/30 08:19:41;;;;;;;22.25;15.70;;;;;;;22.09;67.66;94919.38;4200452;28;20106;-64
2022/08/30 08:21:42;;;;;;;21.48;16.90;;;;;;;22.19;68.10;94921.53;4199881;28;20055;-65
2022/08/30 08:23:44;;;;;;;23.27;17.30;;;;;;;22.34;68.20;94921.16;4205188;28;20045;-64
2022/08/30 08:25:46;;;;;;;18.65;16.75;;;;;;;22.42;68.07;94918.97;4211218;28;20055;-64
2022/08/30 08:27:49;;;;;;;23.90;16.33;;;;;;;22.52;68.02;94920.25;4202372;28;20102;-65
2022/08/30 08:29:51;;;;;;;17.67;12.90;;;;;;;22.59;67.10;94918.34;4209264;28;20074;-63
2022/08/30 08:31:53;;;;;;;15.43;13.52;;;;;;;22.68;66.37;94920.44;4205616;28;20105;-65
2022/08/30 08:33:57;;;;;;;18.48;13.07;;;;;;;22.75;65.78;94922.19;4209891;28;20044;-65
2022/08/30 08:35:59;;;;;;;18.60;13.02;;;;;;;22.81;65.68;94913.25;4205939;28;20117;-65
2022/08/30 08:38:01;;;;;;;19.92;13.02;;;;;;;22.86;65.50;94908.84;4204243;28;20059;-64
2022/08/30 08:40:04;;;;;;;17.55;13.02;;;;;;;22.92;65.23;94911.66;4203034;28;20056;-67
2022/08/30 08:42:35;;;;;;;19.92;14.30;;;;;;;22.98;65.25;94908.88;4206855;28;20059;-66
2022/08/30 08:44:46;;;;;;;19.60;14.80;;;;;;;23.05;65.47;94908.78;4210794;28;20044;-66
2022/08/30 08:46:49;;;;;;;16.48;13.93;;;;;;;23.08;65.15;94903.78;4210472;28;20056;-63
2022/08/30 08:48:53;;;;;;;20.85;13.60;;;;;;;23.08;64.85;94906.47;4208594;28;20047;-62
2022/08/30 08:53:38;;;;;;;18.55;13.60;;;;;;;23.11;64.40;94897.16;4202760;28;20475;-63
2022/08/30 08:55:49;;;;;;;17.55;14.63;;;;;;;23.11;64.00;94902.50;4207756;28;20109;-64
2022/08/30 08:57:51;;;;;;;23.52;17.17;;;;;;;23.06;65.26;94907.75;4203977;28;20048;-65
2022/08/30 08:59:53;;;;;;;25.13;17.40;;;;;;;23.05;66.27;94909.59;4206086;28;20476;-66
2022/08/30 09:02:01;;;;;;;21.23;15.43;;;;;;;23.08;66.27;94909.13;4209435;28;20056;-65
2022/08/30 09:04:31;;;;;;;21.50;15.63;;;;;;;23.14;65.90;94914.59;4210938;28;21676;-66
2022/08/30 09:07:07;;;;;;;20.77;15.80;;;;;;;23.10;65.31;94909.72;4211240;28;20079;-62
2022/08/30 09:09:09;;;;;;;20.30;15.70;;;;;;;22.82;65.18;94907.69;4225781;28;20161;-64
2022/08/30 09:11:22;;;;;;;22.55;16.55;;;;;;;22.67;65.94;94909.97;4210715;28;20199;-65
2022/08/30 09:13:27;;;;;;;19.38;16.35;;;;;;;22.20;67.41;94904.47;4208627;28;20056;-63
2022/08/30 09:15:31;;;;;;;23.45;17.08;;;;;;;22.00;67.78;94910.88;4209115;28;20127;-66
2022/08/30 09:17:55;;;;;;;22.48;17.15;;;;;;;21.83;68.60;94910.69;4209746;28;20048;-62
2022/08/30 09:19:59;;;;;;;26.17;17.90;;;;;;;21.78;69.11;94907.06;4211338;28;20897;-64
2022/08/30 09:22:25;;;;;;;23.17;16.23;;;;;;;21.70;69.38;94910.03;4209045;28;20083;-68
2022/08/30 09:24:45;;;;;;;25.35;18.20;;;;;;;21.70;68.96;94916.16;4198472;28;20102;-67
2022/08/30 09:26:47;;;;;;;19.98;17.88;;;;;;;21.77;68.47;94914.25;4207418;28;20074;-66
2022/08/30 09:28:50;;;;;;;23.90;19.60;;;;;;;21.80;68.65;94907.66;4214008;28;20056;-64
2022/08/30 09:31:15;;;;;;;23.00;18.25;;;;;;;21.60;70.30;94918.56;4198442;28;20057;-64
2022/08/30 09:33:19;;;;;;;22.00;17.83;;;;;;;21.51;69.79;94903.88;4203022;28;20053;-63
2022/08/30 09:35:22;;;;;;;24.13;18.77;;;;;;;21.47;70.43;94909.66;4201560;28;20121;-67